Weather at Zator

Public forecast

Using degrees Celsius for public forecast. Weather courtesy of forecast.io.

Closest aviation weather report (METAR) to Zator

Closest report is Kraków John Paul II International Airport, 16.3 nm (30.3 km) ENE.

2024/06/22 07:00 (retrieved 17 minutes ago)

EPKK 220700Z 25011KT 9999 VCTS SCT023CB SCT030 24/19 Q1011

Closest aviation forecast (TAF) to Zator

Closest forecast is Kraków John Paul II International Airport, 16.3 nm (30.3 km) ENE.

2024/06/22 06:20 Ammendment (retrieved 57 minutes ago)

TAF AMD EPKK 220607Z 2206/2306 28015G25KT 9999 SCT030 TEMPO 2207/2213 VRB25G40KT 2500 TSRA BKN030CB PROB40 TEMPO 2207/2212 1200 +TSRAGR BECMG 2209/2212 25010KT